sensor_id;sensor_type;location;lat;lon;timestamp;temperature;humidity
20829;DHT22;10575;50.124;8.582;2022-10-22T00:02:24;15.30;99.90
20829;DHT22;10575;50.124;8.582;2022-10-22T00:04:50;15.40;99.90
20829;DHT22;10575;50.124;8.582;2022-10-22T00:07:17;15.30;99.90
20829;DHT22;10575;50.124;8.582;2022-10-22T00:09:42;15.30;99.90
20829;DHT22;10575;50.124;8.582;2022-10-22T00:12:08;15.20;99.90
20829;DHT22;10575;50.124;8.582;2022-10-22T00:14:34;15.20;99.90
20829;DHT22;10575;50.124;8.582;2022-10-22T00:16:59;15.10;99.90
20829;DHT22;10575;50.124;8.582;2022-10-22T00:19:26;15.10;99.90
20829;DHT22;10575;50.124;8.582;2022-10-22T00:21:51;15.10;99.90
20829;DHT22;10575;50.124;8.582;2022-10-22T00:24:17;15.10;99.90
20829;DHT22;10575;50.124;8.582;2022-10-22T00:26:42;15.10;99.90
20829;DHT22;10575;50.124;8.582;2022-10-22T00:29:08;15.10;99.90
20829;DHT22;10575;50.124;8.582;2022-10-22T00:31:33;15.20;99.90
20829;DHT22;10575;50.124;8.582;2022-10-22T00:34:00;15.20;99.90
20829;DHT22;10575;50.124;8.582;2022-10-22T00:36:25;15.20;99.90
20829;DHT22;10575;50.124;8.582;2022-10-22T00:38:51;15.30;99.90
20829;DHT22;10575;50.124;8.582;2022-10-22T00:41:16;15.30;99.90
20829;DHT22;10575;50.124;8.582;2022-10-22T00:44:01;15.20;99.90
20829;DHT22;10575;50.124;8.582;2022-10-22T00:46:29;15.20;99.90
20829;DHT22;10575;50.124;8.582;2022-10-22T00:48:56;15.20;99.90
20829;DHT22;10575;50.124;8.582;2022-10-22T00:51:26;15.20;99.90
20829;DHT22;10575;50.124;8.582;2022-10-22T00:53:56;15.30;99.90
20829;DHT22;10575;50.124;8.582;2022-10-22T00:56:24;15.30;99.90
20829;DHT22;10575;50.124;8.582;2022-10-22T00:58:56;15.40;99.90
20829;DHT22;10575;50.124;8.582;2022-10-22T01:01:26;15.40;99.90
20829;DHT22;10575;50.124;8.582;2022-10-22T01:03:52;15.40;99.90
20829;DHT22;10575;50.124;8.582;2022-10-22T01:06:24;15.40;99.90
20829;DHT22;10575;50.124;8.582;2022-10-22T01:08:58;15.40;99.90
20829;DHT22;10575;50.124;8.582;2022-10-22T01:11:46;15.40;99.90
20829;DHT22;10575;50.124;8.582;2022-10-22T01:14:29;15.30;99.90
20829;DHT22;10575;50.124;8.582;2022-10-22T01:17:10;15.30;99.90
20829;DHT22;10575;50.124;8.582;2022-10-22T01:20:12;15.30;99.90
20829;DHT22;10575;50.124;8.582;2022-10-22T01:25:36;15.20;99.90
20829;DHT22;10575;50.124;8.582;2022-10-22T01:30:57;15.20;99.90
20829;DHT22;10575;50.124;8.582;2022-10-22T01:33:24;15.20;99.90
20829;DHT22;10575;50.124;8.582;2022-10-22T01:35:51;15.20;99.90
20829;DHT22;10575;50.124;8.582;2022-10-22T01:38:19;15.30;99.90
20829;DHT22;10575;50.124;8.582;2022-10-22T01:40:46;15.30;99.90
20829;DHT22;10575;50.124;8.582;2022-10-22T01:43:12;15.40;99.90
20829;DHT22;10575;50.124;8.582;2022-10-22T01:45:59;15.20;99.90
20829;DHT22;10575;50.124;8.582;2022-10-22T01:51:37;15.10;99.90
20829;DHT22;10575;50.124;8.582;2022-10-22T01:54:30;15.00;99.90
20829;DHT22;10575;50.124;8.582;2022-10-22T02:00:10;15.10;99.90
20829;DHT22;10575;50.124;8.582;2022-10-22T02:02:57;15.10;99.90
20829;DHT22;10575;50.124;8.582;2022-10-22T02:05:31;15.10;99.90
20829;DHT22;10575;50.124;8.582;2022-10-22T02:08:11;15.20;99.90
20829;DHT22;10575;50.124;8.582;2022-10-22T02:10:40;15.30;99.90
20829;DHT22;10575;50.124;8.582;2022-10-22T02:13:14;15.30;99.90
20829;DHT22;10575;50.124;8.582;2022-10-22T02:15:42;15.30;99.90
20829;DHT22;10575;50.124;8.582;2022-10-22T02:18:09;15.30;99.90
20829;DHT22;10575;50.124;8.582;2022-10-22T02:20:37;15.40;99.90
20829;DHT22;10575;50.124;8.582;2022-10-22T02:23:04;15.40;99.90
20829;DHT22;10575;50.124;8.582;2022-10-22T02:25:35;15.40;99.90
20829;DHT22;10575;50.124;8.582;2022-10-22T02:28:11;15.40;99.90
20829;DHT22;10575;50.124;8.582;2022-10-22T02:30:39;15.40;99.90
20829;DHT22;10575;50.124;8.582;2022-10-22T02:33:30;15.40;99.90
20829;DHT22;10575;50.124;8.582;2022-10-22T02:35:58;15.40;99.90
20829;DHT22;10575;50.124;8.582;2022-10-22T02:38:25;15.40;99.90
20829;DHT22;10575;50.124;8.582;2022-10-22T02:40:51;15.40;99.90
20829;DHT22;10575;50.124;8.582;2022-10-22T02:43:17;15.50;99.90
20829;DHT22;10575;50.124;8.582;2022-10-22T02:45:43;15.50;99.90
20829;DHT22;10575;50.124;8.582;2022-10-22T02:48:10;15.60;99.90
20829;DHT22;10575;50.124;8.582;2022-10-22T02:50:35;15.60;99.90
20829;DHT22;10575;50.124;8.582;2022-10-22T02:53:01;15.60;99.90
20829;DHT22;10575;50.124;8.582;2022-10-22T02:55:27;15.60;99.90
20829;DHT22;10575;50.124;8.582;2022-10-22T02:57:52;15.50;99.90
20829;DHT22;10575;50.124;8.582;2022-10-22T03:00:20;15.50;99.90
20829;DHT22;10575;50.124;8.582;2022-10-22T03:02:45;15.50;99.90
20829;DHT22;10575;50.124;8.582;2022-10-22T03:05:11;15.50;99.90
20829;DHT22;10575;50.124;8.582;2022-10-22T03:07:36;15.40;99.90
20829;DHT22;10575;50.124;8.582;2022-10-22T03:10:02;15.30;99.90
20829;DHT22;10575;50.124;8.582;2022-10-22T03:12:28;15.30;99.90
20829;DHT22;10575;50.124;8.582;2022-10-22T03:14:54;15.30;99.90
20829;DHT22;10575;50.124;8.582;2022-10-22T03:17:19;15.30;99.90
20829;DHT22;10575;50.124;8.582;2022-10-22T03:19:45;15.30;99.90
20829;DHT22;10575;50.124;8.582;2022-10-22T03:22:14;15.30;99.90
20829;DHT22;10575;50.124;8.582;2022-10-22T03:24:43;15.30;99.90
20829;DHT22;10575;50.124;8.582;2022-10-22T03:27:12;15.30;99.90
20829;DHT22;10575;50.124;8.582;2022-10-22T03:29:40;15.20;99.90
20829;DHT22;10575;50.124;8.582;2022-10-22T03:32:06;15.30;99.90
20829;DHT22;10575;50.124;8.582;2022-10-22T03:34:32;15.30;99.90
20829;DHT22;10575;50.124;8.582;2022-10-22T03:36:59;15.30;99.90
20829;DHT22;10575;50.124;8.582;2022-10-22T03:39:26;15.30;99.90
20829;DHT22;10575;50.124;8.582;2022-10-22T03:41:52;15.30;99.90
20829;DHT22;10575;50.124;8.582;2022-10-22T03:44:18;15.30;99.90
20829;DHT22;10575;50.124;8.582;2022-10-22T03:46:44;15.30;99.90
20829;DHT22;10575;50.124;8.582;2022-10-22T03:49:10;15.30;99.90
20829;DHT22;10575;50.124;8.582;2022-10-22T03:51:36;15.30;99.90
20829;DHT22;10575;50.124;8.582;2022-10-22T03:54:02;15.40;99.90
20829;DHT22;10575;50.124;8.582;2022-10-22T03:56:28;15.40;99.90
20829;DHT22;10575;50.124;8.582;2022-10-22T03:58:56;15.50;99.90
20829;DHT22;10575;50.124;8.582;2022-10-22T04:01:22;15.40;99.90
20829;DHT22;10575;50.124;8.582;2022-10-22T04:03:48;15.40;99.90
20829;DHT22;10575;50.124;8.582;2022-10-22T04:06:14;15.40;99.90
20829;DHT22;10575;50.124;8.582;2022-10-22T04:08:41;15.40;99.90
20829;DHT22;10575;50.124;8.582;2022-10-22T04:11:07;15.40;99.90
20829;DHT22;10575;50.124;8.582;2022-10-22T04:13:33;15.30;99.90
20829;DHT22;10575;50.124;8.582;2022-10-22T04:18:33;15.30;99.90
20829;DHT22;10575;50.124;8.582;2022-10-22T04:20:58;15.30;99.90
20829;DHT22;10575;50.124;8.582;2022-10-22T04:23:24;15.40;99.90
20829;DHT22;10575;50.124;8.582;2022-10-22T04:25:49;15.40;99.90
20829;DHT22;10575;50.124;8.582;2022-10-22T04:28:21;15.40;99.90
20829;DHT22;10575;50.124;8.582;2022-10-22T04:30:46;15.40;99.90
20829;DHT22;10575;50.124;8.582;2022-10-22T04:33:12;15.40;99.90
20829;DHT22;10575;50.124;8.582;2022-10-22T04:35:38;15.40;99.90
20829;DHT22;10575;50.124;8.582;2022-10-22T04:38:04;15.40;99.90
20829;DHT22;10575;50.124;8.582;2022-10-22T04:40:29;15.40;99.90
20829;DHT22;10575;50.124;8.582;2022-10-22T04:42:55;15.30;99.90
20829;DHT22;10575;50.124;8.582;2022-10-22T04:45:21;15.20;99.90
20829;DHT22;10575;50.124;8.582;2022-10-22T04:47:46;15.10;99.90
20829;DHT22;10575;50.124;8.582;2022-10-22T04:50:12;15.10;99.90
20829;DHT22;10575;50.124;8.582;2022-10-22T04:52:38;15.10;99.90
20829;DHT22;10575;50.124;8.582;2022-10-22T04:55:03;15.20;99.90
20829;DHT22;10575;50.124;8.582;2022-10-22T04:57:29;15.10;99.90
20829;DHT22;10575;50.124;8.582;2022-10-22T04:59:55;15.10;99.90
20829;DHT22;10575;50.124;8.582;2022-10-22T05:02:21;15.10;99.90
20829;DHT22;10575;50.124;8.582;2022-10-22T05:04:46;15.10;99.90
20829;DHT22;10575;50.124;8.582;2022-10-22T05:07:12;15.00;99.90
20829;DHT22;10575;50.124;8.582;2022-10-22T05:09:38;15.00;99.90
20829;DHT22;10575;50.124;8.582;2022-10-22T05:12:04;15.00;99.90
20829;DHT22;10575;50.124;8.582;2022-10-22T05:14:31;14.90;99.90
20829;DHT22;10575;50.124;8.582;2022-10-22T05:16:57;14.90;99.90
20829;DHT22;10575;50.124;8.582;2022-10-22T05:19:25;14.90;99.90
20829;DHT22;10575;50.124;8.582;2022-10-22T05:21:53;14.90;99.90
20829;DHT22;10575;50.124;8.582;2022-10-22T05:24:19;14.90;99.90
20829;DHT22;10575;50.124;8.582;2022-10-22T05:26:47;14.90;99.90
20829;DHT22;10575;50.124;8.582;2022-10-22T05:29:12;14.90;99.90
20829;DHT22;10575;50.124;8.582;2022-10-22T05:31:38;15.00;99.90
20829;DHT22;10575;50.124;8.582;2022-10-22T05:34:03;15.00;99.90
20829;DHT22;10575;50.124;8.582;2022-10-22T05:36:29;15.10;99.90
20829;DHT22;10575;50.124;8.582;2022-10-22T05:38:56;15.10;99.90
20829;DHT22;10575;50.124;8.582;2022-10-22T05:41:23;15.10;99.90
20829;DHT22;10575;50.124;8.582;2022-10-22T05:43:49;15.10;99.90
20829;DHT22;10575;50.124;8.582;2022-10-22T05:46:20;15.00;99.90
20829;DHT22;10575;50.124;8.582;2022-10-22T05:48:50;14.90;99.90
20829;DHT22;10575;50.124;8.582;2022-10-22T05:51:16;15.00;99.90
20829;DHT22;10575;50.124;8.582;2022-10-22T05:53:42;15.00;99.90
20829;DHT22;10575;50.124;8.582;2022-10-22T05:56:12;15.00;99.90
20829;DHT22;10575;50.124;8.582;2022-10-22T05:58:38;15.00;99.90
20829;DHT22;10575;50.124;8.582;2022-10-22T06:01:05;14.90;99.90
20829;DHT22;10575;50.124;8.582;2022-10-22T06:03:31;15.00;99.90
20829;DHT22;10575;50.124;8.582;2022-10-22T06:05:59;15.00;99.90
20829;DHT22;10575;50.124;8.582;2022-10-22T06:08:25;15.10;99.90
20829;DHT22;10575;50.124;8.582;2022-10-22T06:10:51;15.10;99.90
20829;DHT22;10575;50.124;8.582;2022-10-22T06:13:17;15.00;99.90
20829;DHT22;10575;50.124;8.582;2022-10-22T06:15:42;14.90;99.90
20829;DHT22;10575;50.124;8.582;2022-10-22T06:18:08;14.80;99.90
20829;DHT22;10575;50.124;8.582;2022-10-22T06:20:34;14.70;99.90
20829;DHT22;10575;50.124;8.582;2022-10-22T06:22:59;14.70;99.90
20829;DHT22;10575;50.124;8.582;2022-10-22T06:25:25;14.80;99.90
20829;DHT22;10575;50.124;8.582;2022-10-22T06:27:51;14.80;99.90
20829;DHT22;10575;50.124;8.582;2022-10-22T06:30:16;14.70;99.90
20829;DHT22;10575;50.124;8.582;2022-10-22T06:32:42;14.70;99.90
20829;DHT22;10575;50.124;8.582;2022-10-22T06:35:08;14.60;99.90
20829;DHT22;10575;50.124;8.582;2022-10-22T06:37:33;14.50;99.90
20829;DHT22;10575;50.124;8.582;2022-10-22T06:39:59;14.40;99.90
20829;DHT22;10575;50.124;8.582;2022-10-22T06:42:24;14.40;99.90
20829;DHT22;10575;50.124;8.582;2022-10-22T06:44:50;14.40;99.90
20829;DHT22;10575;50.124;8.582;2022-10-22T06:47:15;14.40;99.90
20829;DHT22;10575;50.124;8.582;2022-10-22T06:49:41;14.40;99.90
20829;DHT22;10575;50.124;8.582;2022-10-22T06:52:07;14.40;99.90
20829;DHT22;10575;50.124;8.582;2022-10-22T06:54:32;14.40;99.90
20829;DHT22;10575;50.124;8.582;2022-10-22T06:56:58;14.40;99.90
20829;DHT22;10575;50.124;8.582;2022-10-22T06:59:23;14.50;99.90
20829;DHT22;10575;50.124;8.582;2022-10-22T07:01:49;14.50;99.90
20829;DHT22;10575;50.124;8.582;2022-10-22T07:04:14;14.60;99.90
20829;DHT22;10575;50.124;8.582;2022-10-22T07:06:40;14.60;99.90
20829;DHT22;10575;50.124;8.582;2022-10-22T07:09:05;14.60;99.90
20829;DHT22;10575;50.124;8.582;2022-10-22T07:11:43;14.70;99.90
20829;DHT22;10575;50.124;8.582;2022-10-22T07:14:09;14.90;99.90
20829;DHT22;10575;50.124;8.582;2022-10-22T07:16:35;15.40;99.90
20829;DHT22;10575;50.124;8.582;2022-10-22T07:19:01;16.20;99.90
20829;DHT22;10575;50.124;8.582;2022-10-22T07:21:28;17.20;99.90
20829;DHT22;10575;50.124;8.582;2022-10-22T07:23:54;17.80;99.90
20829;DHT22;10575;50.124;8.582;2022-10-22T07:26:19;18.20;99.90
20829;DHT22;10575;50.124;8.582;2022-10-22T07:28:45;18.40;99.90
20829;DHT22;10575;50.124;8.582;2022-10-22T07:31:13;18.50;99.90
20829;DHT22;10575;50.124;8.582;2022-10-22T07:33:39;18.60;99.90
20829;DHT22;10575;50.124;8.582;2022-10-22T07:36:07;18.50;99.90
20829;DHT22;10575;50.124;8.582;2022-10-22T07:38:34;19.40;99.90
20829;DHT22;10575;50.124;8.582;2022-10-22T07:41:00;20.60;99.90
20829;DHT22;10575;50.124;8.582;2022-10-22T07:43:26;20.90;99.90
20829;DHT22;10575;50.124;8.582;2022-10-22T07:45:52;20.90;99.90
20829;DHT22;10575;50.124;8.582;2022-10-22T07:48:19;20.60;99.90
20829;DHT22;10575;50.124;8.582;2022-10-22T07:50:44;20.30;99.90
20829;DHT22;10575;50.124;8.582;2022-10-22T07:53:10;20.20;99.90
20829;DHT22;10575;50.124;8.582;2022-10-22T07:55:35;20.70;99.90
20829;DHT22;10575;50.124;8.582;2022-10-22T07:58:02;21.60;99.90
20829;DHT22;10575;50.124;8.582;2022-10-22T08:00:27;21.50;99.90
20829;DHT22;10575;50.124;8.582;2022-10-22T08:02:53;20.80;99.90
20829;DHT22;10575;50.124;8.582;2022-10-22T08:05:21;20.10;99.90
20829;DHT22;10575;50.124;8.582;2022-10-22T08:07:46;19.40;99.90
20829;DHT22;10575;50.124;8.582;2022-10-22T08:10:12;18.70;99.90
20829;DHT22;10575;50.124;8.582;2022-10-22T08:12:38;18.10;99.90
20829;DHT22;10575;50.124;8.582;2022-10-22T08:15:04;17.70;99.90
20829;DHT22;10575;50.124;8.582;2022-10-22T08:17:29;17.40;99.90
20829;DHT22;10575;50.124;8.582;2022-10-22T08:19:55;17.80;99.90
20829;DHT22;10575;50.124;8.582;2022-10-22T08:22:20;18.60;99.90
20829;DHT22;10575;50.124;8.582;2022-10-22T08:24:46;19.80;99.90
20829;DHT22;10575;50.124;8.582;2022-10-22T08:27:12;21.30;99.90
20829;DHT22;10575;50.124;8.582;2022-10-22T08:29:37;22.40;99.90
20829;DHT22;10575;50.124;8.582;2022-10-22T08:32:03;22.80;99.90
20829;DHT22;10575;50.124;8.582;2022-10-22T08:34:29;22.40;99.90
20829;DHT22;10575;50.124;8.582;2022-10-22T08:36:54;22.90;99.90
20829;DHT22;10575;50.124;8.582;2022-10-22T08:39:20;23.90;99.90
20829;DHT22;10575;50.124;8.582;2022-10-22T08:42:10;25.50;99.90
20829;DHT22;10575;50.124;8.582;2022-10-22T08:45:07;28.10;99.90
20829;DHT22;10575;50.124;8.582;2022-10-22T08:47:48;29.10;99.90
20829;DHT22;10575;50.124;8.582;2022-10-22T08:50:23;30.40;99.90
20829;DHT22;10575;50.124;8.582;2022-10-22T08:52:55;31.50;99.00
20829;DHT22;10575;50.124;8.582;2022-10-22T08:55:24;31.90;96.80
20829;DHT22;10575;50.124;8.582;2022-10-22T08:58:02;32.60;92.40
20829;DHT22;10575;50.124;8.582;2022-10-22T09:00:59;32.10;93.40
20829;DHT22;10575;50.124;8.582;2022-10-22T09:04:21;33.90;89.10
20829;DHT22;10575;50.124;8.582;2022-10-22T09:06:23;36.00;78.80
20829;DHT22;10575;50.124;8.582;2022-10-22T09:08:50;36.40;73.60
20829;DHT22;10575;50.124;8.582;2022-10-22T09:11:36;34.90;73.50
20829;DHT22;10575;50.124;8.582;2022-10-22T09:14:03;31.80;79.80
20829;DHT22;10575;50.124;8.582;2022-10-22T09:16:42;29.40;85.60
20829;DHT22;10575;50.124;8.582;2022-10-22T09:19:28;27.70;92.10
20829;DHT22;10575;50.124;8.582;2022-10-22T09:24:43;24.60;99.90
20829;DHT22;10575;50.124;8.582;2022-10-22T09:27:18;23.60;99.90
20829;DHT22;10575;50.124;8.582;2022-10-22T09:29:45;22.70;99.90
20829;DHT22;10575;50.124;8.582;2022-10-22T09:32:12;22.10;99.90
20829;DHT22;10575;50.124;8.582;2022-10-22T09:34:37;21.60;99.90
20829;DHT22;10575;50.124;8.582;2022-10-22T09:37:07;21.00;99.90
20829;DHT22;10575;50.124;8.582;2022-10-22T09:39:38;20.80;99.90
20829;DHT22;10575;50.124;8.582;2022-10-22T09:42:05;20.60;99.90
20829;DHT22;10575;50.124;8.582;2022-10-22T09:44:40;20.40;99.90
20829;DHT22;10575;50.124;8.582;2022-10-22T09:47:27;20.60;99.90
20829;DHT22;10575;50.124;8.582;2022-10-22T09:50:11;20.70;99.90
20829;DHT22;10575;50.124;8.582;2022-10-22T09:52:43;20.70;99.90
20829;DHT22;10575;50.124;8.582;2022-10-22T09:55:15;21.20;99.90
20829;DHT22;10575;50.124;8.582;2022-10-22T09:57:41;21.40;99.90
20829;DHT22;10575;50.124;8.582;2022-10-22T10:00:08;21.10;99.90
20829;DHT22;10575;50.124;8.582;2022-10-22T10:02:34;20.90;99.90
20829;DHT22;10575;50.124;8.582;2022-10-22T10:05:04;20.70;99.90
20829;DHT22;10575;50.124;8.582;2022-10-22T10:07:31;20.50;99.90
20829;DHT22;10575;50.124;8.582;2022-10-22T10:09:57;20.30;99.90
20829;DHT22;10575;50.124;8.582;2022-10-22T10:12:47;20.00;99.90
20829;DHT22;10575;50.124;8.582;2022-10-22T10:15:54;20.10;99.90
20829;DHT22;10575;50.124;8.582;2022-10-22T10:18:24;20.10;99.90
20829;DHT22;10575;50.124;8.582;2022-10-22T10:21:14;20.10;99.90
20829;DHT22;10575;50.124;8.582;2022-10-22T10:23:52;20.00;99.90
20829;DHT22;10575;50.124;8.582;2022-10-22T10:29:21;19.80;99.90
20829;DHT22;10575;50.124;8.582;2022-10-22T10:34:42;19.80;99.90
20829;DHT22;10575;50.124;8.582;2022-10-22T10:37:24;19.70;99.90
20829;DHT22;10575;50.124;8.582;2022-10-22T10:40:16;19.70;99.90
20829;DHT22;10575;50.124;8.582;2022-10-22T10:46:06;19.50;99.90
20829;DHT22;10575;50.124;8.582;2022-10-22T10:49:09;19.20;99.90
20829;DHT22;10575;50.124;8.582;2022-10-22T10:54:58;19.30;99.90
20829;DHT22;10575;50.124;8.582;2022-10-22T11:00:19;19.40;99.90
20829;DHT22;10575;50.124;8.582;2022-10-22T11:05:53;19.50;99.90
20829;DHT22;10575;50.124;8.582;2022-10-22T11:08:24;19.50;99.90
20829;DHT22;10575;50.124;8.582;2022-10-22T11:11:00;19.40;99.90
20829;DHT22;10575;50.124;8.582;2022-10-22T11:16:58;19.60;99.90
20829;DHT22;10575;50.124;8.582;2022-10-22T11:19:31;19.70;99.90
20829;DHT22;10575;50.124;8.582;2022-10-22T11:22:10;19.80;99.90
20829;DHT22;10575;50.124;8.582;2022-10-22T11:27:49;20.10;99.90
20829;DHT22;10575;50.124;8.582;2022-10-22T11:30:18;20.10;99.90
20829;DHT22;10575;50.124;8.582;2022-10-22T11:32:48;20.00;99.90
20829;DHT22;10575;50.124;8.582;2022-10-22T11:35:21;19.90;99.90
20829;DHT22;10575;50.124;8.582;2022-10-22T11:37:49;19.80;99.90
20829;DHT22;10575;50.124;8.582;2022-10-22T11:40:21;19.70;99.90
20829;DHT22;10575;50.124;8.582;2022-10-22T11:42:57;19.80;99.90
20829;DHT22;10575;50.124;8.582;2022-10-22T11:50:48;20.00;99.90
20829;DHT22;10575;50.124;8.582;2022-10-22T11:55:49;19.80;99.90
20829;DHT22;10575;50.124;8.582;2022-10-22T12:00:49;19.20;99.90
20829;DHT22;10575;50.124;8.582;2022-10-22T12:03:24;19.00;99.90
20829;DHT22;10575;50.124;8.582;2022-10-22T12:08:30;18.80;99.90
20829;DHT22;10575;50.124;8.582;2022-10-22T12:11:22;18.70;99.90
20829;DHT22;10575;50.124;8.582;2022-10-22T12:14:01;18.60;99.90
20829;DHT22;10575;50.124;8.582;2022-10-22T12:16:34;18.50;99.90
20829;DHT22;10575;50.124;8.582;2022-10-22T12:21:37;18.60;99.90
20829;DHT22;10575;50.124;8.582;2022-10-22T12:24:04;18.70;99.90
20829;DHT22;10575;50.124;8.582;2022-10-22T12:26:31;18.80;99.90
20829;DHT22;10575;50.124;8.582;2022-10-22T12:29:00;18.70;99.90
20829;DHT22;10575;50.124;8.582;2022-10-22T12:31:27;18.60;99.90
20829;DHT22;10575;50.124;8.582;2022-10-22T12:33:59;18.60;99.90
20829;DHT22;10575;50.124;8.582;2022-10-22T12:36:27;18.50;99.90
20829;DHT22;10575;50.124;8.582;2022-10-22T12:38:52;18.60;99.90
20829;DHT22;10575;50.124;8.582;2022-10-22T12:41:28;18.80;99.90
20829;DHT22;10575;50.124;8.582;2022-10-22T12:43:58;18.90;99.90
20829;DHT22;10575;50.124;8.582;2022-10-22T12:46:24;19.10;99.90
20829;DHT22;10575;50.124;8.582;2022-10-22T12:48:51;19.20;99.90
20829;DHT22;10575;50.124;8.582;2022-10-22T12:51:19;19.20;99.90
20829;DHT22;10575;50.124;8.582;2022-10-22T12:53:47;19.10;99.90
20829;DHT22;10575;50.124;8.582;2022-10-22T12:56:17;19.10;99.90
20829;DHT22;10575;50.124;8.582;2022-10-22T12:59:12;18.90;99.90
20829;DHT22;10575;50.124;8.582;2022-10-22T13:01:36;18.90;99.90
20829;DHT22;10575;50.124;8.582;2022-10-22T13:06:48;19.00;99.90
20829;DHT22;10575;50.124;8.582;2022-10-22T13:09:23;19.10;99.90
20829;DHT22;10575;50.124;8.582;2022-10-22T13:14:30;19.30;99.90
20829;DHT22;10575;50.124;8.582;2022-10-22T13:17:17;19.30;99.90
20829;DHT22;10575;50.124;8.582;2022-10-22T13:24:57;19.30;99.90
20829;DHT22;10575;50.124;8.582;2022-10-22T13:27:25;19.30;99.90
20829;DHT22;10575;50.124;8.582;2022-10-22T13:29:51;19.30;99.90
20829;DHT22;10575;50.124;8.582;2022-10-22T13:32:30;19.50;99.90
20829;DHT22;10575;50.124;8.582;2022-10-22T13:35:01;19.50;99.90
20829;DHT22;10575;50.124;8.582;2022-10-22T13:37:28;19.40;99.90
20829;DHT22;10575;50.124;8.582;2022-10-22T13:39:54;19.30;99.90
20829;DHT22;10575;50.124;8.582;2022-10-22T13:42:20;19.30;99.90
20829;DHT22;10575;50.124;8.582;2022-10-22T13:44:45;19.20;99.90
20829;DHT22;10575;50.124;8.582;2022-10-22T13:47:26;19.20;99.90
20829;DHT22;10575;50.124;8.582;2022-10-22T13:49:57;19.10;99.90
20829;DHT22;10575;50.124;8.582;2022-10-22T13:52:34;19.20;99.90
20829;DHT22;10575;50.124;8.582;2022-10-22T13:55:00;19.00;99.90
20829;DHT22;10575;50.124;8.582;2022-10-22T13:57:26;19.00;99.90
20829;DHT22;10575;50.124;8.582;2022-10-22T13:59:51;19.00;99.90
20829;DHT22;10575;50.124;8.582;2022-10-22T14:02:17;19.00;99.90
20829;DHT22;10575;50.124;8.582;2022-10-22T14:04:43;18.90;99.90
20829;DHT22;10575;50.124;8.582;2022-10-22T14:07:15;18.70;99.90
20829;DHT22;10575;50.124;8.582;2022-10-22T14:09:42;18.60;99.90
20829;DHT22;10575;50.124;8.582;2022-10-22T14:12:12;18.40;99.90
20829;DHT22;10575;50.124;8.582;2022-10-22T14:14:38;18.30;99.90
20829;DHT22;10575;50.124;8.582;2022-10-22T14:17:04;18.20;99.90
20829;DHT22;10575;50.124;8.582;2022-10-22T14:19:31;18.20;99.90
20829;DHT22;10575;50.124;8.582;2022-10-22T14:21:56;18.30;99.90
20829;DHT22;10575;50.124;8.582;2022-10-22T14:24:22;18.50;99.90
20829;DHT22;10575;50.124;8.582;2022-10-22T14:26:47;18.80;99.90
20829;DHT22;10575;50.124;8.582;2022-10-22T14:29:13;18.80;99.90
20829;DHT22;10575;50.124;8.582;2022-10-22T14:31:39;18.80;99.90
20829;DHT22;10575;50.124;8.582;2022-10-22T14:34:05;18.70;99.90
20829;DHT22;10575;50.124;8.582;2022-10-22T14:36:30;18.60;99.90
20829;DHT22;10575;50.124;8.582;2022-10-22T14:38:56;18.60;99.90
20829;DHT22;10575;50.124;8.582;2022-10-22T14:41:23;18.60;99.90
20829;DHT22;10575;50.124;8.582;2022-10-22T14:43:50;18.50;99.90
20829;DHT22;10575;50.124;8.582;2022-10-22T14:46:16;18.50;99.90
20829;DHT22;10575;50.124;8.582;2022-10-22T14:48:42;18.60;99.90
20829;DHT22;10575;50.124;8.582;2022-10-22T14:51:16;18.80;99.90
20829;DHT22;10575;50.124;8.582;2022-10-22T14:53:42;19.00;99.90
20829;DHT22;10575;50.124;8.582;2022-10-22T14:56:10;19.00;99.90
20829;DHT22;10575;50.124;8.582;2022-10-22T14:58:36;18.90;99.90
20829;DHT22;10575;50.124;8.582;2022-10-22T15:01:03;18.80;99.90
20829;DHT22;10575;50.124;8.582;2022-10-22T15:03:28;18.70;99.90
20829;DHT22;10575;50.124;8.582;2022-10-22T15:05:54;18.60;99.90
20829;DHT22;10575;50.124;8.582;2022-10-22T15:08:20;18.50;99.90
20829;DHT22;10575;50.124;8.582;2022-10-22T15:10:59;18.50;99.90
20829;DHT22;10575;50.124;8.582;2022-10-22T15:13:26;18.50;99.90
20829;DHT22;10575;50.124;8.582;2022-10-22T15:15:53;18.60;99.90
20829;DHT22;10575;50.124;8.582;2022-10-22T15:18:19;18.60;99.90
20829;DHT22;10575;50.124;8.582;2022-10-22T15:20:44;18.70;99.90
20829;DHT22;10575;50.124;8.582;2022-10-22T15:23:10;18.60;99.90
20829;DHT22;10575;50.124;8.582;2022-10-22T15:25:35;18.50;99.90
20829;DHT22;10575;50.124;8.582;2022-10-22T15:28:01;18.40;99.90
20829;DHT22;10575;50.124;8.582;2022-10-22T15:30:26;18.30;99.90
20829;DHT22;10575;50.124;8.582;2022-10-22T15:32:52;18.20;99.90
20829;DHT22;10575;50.124;8.582;2022-10-22T15:35:18;18.10;99.90
20829;DHT22;10575;50.124;8.582;2022-10-22T15:37:43;18.00;99.90
20829;DHT22;10575;50.124;8.582;2022-10-22T15:40:09;17.90;99.90
20829;DHT22;10575;50.124;8.582;2022-10-22T15:42:34;17.90;99.90
20829;DHT22;10575;50.124;8.582;2022-10-22T15:45:00;17.90;99.90
20829;DHT22;10575;50.124;8.582;2022-10-22T15:47:26;17.90;99.90
20829;DHT22;10575;50.124;8.582;2022-10-22T15:49:53;18.00;99.90
20829;DHT22;10575;50.124;8.582;2022-10-22T15:52:19;18.00;99.90
20829;DHT22;10575;50.124;8.582;2022-10-22T15:54:47;18.00;99.90
20829;DHT22;10575;50.124;8.582;2022-10-22T15:57:13;18.00;99.90
20829;DHT22;10575;50.124;8.582;2022-10-22T15:59:38;18.00;99.90
20829;DHT22;10575;50.124;8.582;2022-10-22T16:02:04;18.00;99.90
20829;DHT22;10575;50.124;8.582;2022-10-22T16:04:31;18.00;99.90
20829;DHT22;10575;50.124;8.582;2022-10-22T16:06:57;17.80;99.90
20829;DHT22;10575;50.124;8.582;2022-10-22T16:09:24;17.80;99.90
20829;DHT22;10575;50.124;8.582;2022-10-22T16:11:50;17.60;99.90
20829;DHT22;10575;50.124;8.582;2022-10-22T16:14:18;17.50;99.90
20829;DHT22;10575;50.124;8.582;2022-10-22T16:16:50;17.50;99.90
20829;DHT22;10575;50.124;8.582;2022-10-22T16:19:17;17.40;99.90
20829;DHT22;10575;50.124;8.582;2022-10-22T16:21:43;17.20;99.90
20829;DHT22;10575;50.124;8.582;2022-10-22T16:24:10;17.10;99.90
20829;DHT22;10575;50.124;8.582;2022-10-22T16:26:35;17.00;99.90
20829;DHT22;10575;50.124;8.582;2022-10-22T16:29:01;16.90;99.90
20829;DHT22;10575;50.124;8.582;2022-10-22T16:31:27;16.90;99.90
20829;DHT22;10575;50.124;8.582;2022-10-22T16:33:52;16.80;99.90
20829;DHT22;10575;50.124;8.582;2022-10-22T16:36:19;16.80;99.90
20829;DHT22;10575;50.124;8.582;2022-10-22T16:38:45;16.70;99.90
20829;DHT22;10575;50.124;8.582;2022-10-22T16:41:14;16.70;99.90
20829;DHT22;10575;50.124;8.582;2022-10-22T16:43:41;16.60;99.90
20829;DHT22;10575;50.124;8.582;2022-10-22T16:46:08;16.60;99.90
20829;DHT22;10575;50.124;8.582;2022-10-22T16:48:33;16.50;99.90
20829;DHT22;10575;50.124;8.582;2022-10-22T16:51:04;16.50;99.90